Time;durP1;ratioP1;P1;durP2;ratioP2;P2;SDS_P1;SDS_P2;PMS_P1;PMS_P2;Temp;Humidity;BMP_temperature;BMP_pressure;BME280_temperature;BME280_humidity;BME280_pressure;Samples;Min_cycle;Max_cycle;Signal;HPM_P1;HPM_P2
2022/03/06 00:01:13;;;;;;;4.60;3.67;;;13.00;55.50;;;;;;5097429;28;20287;-75
2022/03/06 00:03:39;;;;;;;3.83;3.30;;;12.90;55.40;;;;;;5097507;28;20231;-75
2022/03/06 00:06:05;;;;;;;4.20;3.23;;;12.90;55.40;;;;;;5097197;28;20201;-75
2022/03/06 00:08:32;;;;;;;4.83;3.70;;;12.90;55.40;;;;;;5097032;28;20614;-75
2022/03/06 00:10:58;;;;;;;4.17;3.40;;;12.90;55.40;;;;;;5097646;28;20170;-75
2022/03/06 00:13:23;;;;;;;5.37;3.50;;;12.90;55.30;;;;;;5097261;28;20169;-75
2022/03/06 00:15:49;;;;;;;3.97;3.23;;;12.90;55.30;;;;;;5097445;28;20175;-75
2022/03/06 00:18:16;;;;;;;4.37;3.30;;;12.90;55.40;;;;;;5097486;28;20568;-75
2022/03/06 00:20:42;;;;;;;5.30;3.77;;;12.90;55.50;;;;;;5097144;28;20266;-75
2022/03/06 00:23:08;;;;;;;4.40;3.20;;;12.90;55.40;;;;;;5096788;28;20650;-74
2022/03/06 00:25:34;;;;;;;4.57;3.67;;;12.80;55.30;;;;;;5096880;28;20225;-75
2022/03/06 00:28:07;;;;;;;4.87;3.60;;;12.80;55.40;;;;;;5097406;28;20180;-75
2022/03/06 00:30:33;;;;;;;4.33;3.30;;;12.80;55.40;;;;;;5098145;28;20599;-75
2022/03/06 00:32:59;;;;;;;3.80;3.23;;;12.80;55.40;;;;;;5096798;28;20562;-75
2022/03/06 00:35:26;;;;;;;4.80;3.50;;;12.80;55.40;;;;;;5096883;28;20195;-75
2022/03/06 00:37:52;;;;;;;4.47;3.50;;;12.80;55.40;;;;;;5096821;28;20551;-75
2022/03/06 00:40:18;;;;;;;4.17;3.43;;;12.80;55.40;;;;;;5096901;28;20531;-75
2022/03/06 00:42:43;;;;;;;3.87;3.50;;;12.80;55.40;;;;;;5096826;28;20594;-75
2022/03/06 00:45:09;;;;;;;4.20;3.40;;;12.80;55.40;;;;;;5095836;28;20579;-75
2022/03/06 00:47:38;;;;;;;4.13;3.53;;;12.80;55.40;;;;;;5096986;28;20221;-75
2022/03/06 00:50:04;;;;;;;4.67;3.80;;;12.80;55.40;;;;;;5097369;28;20522;-75
2022/03/06 00:52:29;;;;;;;4.87;3.90;;;12.80;55.40;;;;;;5097120;28;20243;-75
2022/03/06 00:54:55;;;;;;;3.77;3.33;;;12.70;55.40;;;;;;5097529;28;20503;-75
2022/03/06 00:57:22;;;;;;;4.13;3.50;;;12.70;55.40;;;;;;5097565;28;20196;-75
2022/03/06 00:59:47;;;;;;;4.27;3.40;;;12.70;55.30;;;;;;5096924;28;20180;-74
2022/03/06 01:02:13;;;;;;;6.13;3.93;;;12.70;55.30;;;;;;5097202;28;20233;-75
2022/03/06 01:04:40;;;;;;;3.73;3.30;;;12.70;55.30;;;;;;5096978;28;20253;-75
2022/03/06 01:07:08;;;;;;;3.47;3.10;;;12.70;55.40;;;;;;5096651;28;20169;-75
2022/03/06 01:09:33;;;;;;;4.20;3.60;;;12.70;55.30;;;;;;5096875;28;20201;-75
2022/03/06 01:11:59;;;;;;;3.50;3.20;;;12.70;55.40;;;;;;5096444;28;20468;-75
2022/03/06 01:14:25;;;;;;;4.07;3.37;;;12.70;55.40;;;;;;5096798;28;20195;-75
2022/03/06 01:16:51;;;;;;;4.80;3.70;;;12.70;55.40;;;;;;5096629;28;20524;-75
2022/03/06 01:19:16;;;;;;;4.13;3.60;;;12.70;55.40;;;;;;5096732;28;20183;-75
2022/03/06 01:21:42;;;;;;;4.63;3.40;;;12.70;55.40;;;;;;5096426;28;20206;-75
2022/03/06 01:24:08;;;;;;;3.90;3.37;;;12.70;55.30;;;;;;5096273;28;20213;-75
2022/03/06 01:26:34;;;;;;;4.47;3.40;;;12.60;55.30;;;;;;5097190;28;20198;-75
2022/03/06 01:29:00;;;;;;;4.37;3.60;;;12.60;55.40;;;;;;5099676;28;20162;-74
2022/03/06 01:31:26;;;;;;;4.17;3.60;;;12.60;55.20;;;;;;5100456;28;20240;-74
2022/03/06 01:33:53;;;;;;;4.80;3.70;;;12.60;55.30;;;;;;5100541;28;20185;-75
2022/03/06 01:36:18;;;;;;;4.77;3.43;;;12.60;55.30;;;;;;5100502;28;20177;-75
2022/03/06 01:38:44;;;;;;;4.80;3.53;;;12.60;55.30;;;;;;5100577;28;20190;-75
2022/03/06 01:41:10;;;;;;;4.13;3.63;;;12.60;55.30;;;;;;5100795;28;20347;-75
2022/03/06 01:43:37;;;;;;;3.77;3.33;;;12.60;55.30;;;;;;5100551;28;20246;-75
2022/03/06 01:46:02;;;;;;;4.40;3.73;;;12.60;55.20;;;;;;5100435;28;20467;-75
2022/03/06 01:48:28;;;;;;;4.20;3.40;;;12.60;55.20;;;;;;5100356;28;20169;-75
2022/03/06 01:50:54;;;;;;;4.33;3.47;;;12.60;55.20;;;;;;5100745;28;20173;-74
2022/03/06 01:53:25;;;;;;;4.27;3.60;;;12.50;55.10;;;;;;5100519;28;20549;-75
2022/03/06 01:55:51;;;;;;;4.30;3.70;;;12.50;55.20;;;;;;5100406;28;20170;-75
2022/03/06 01:58:16;;;;;;;3.30;3.00;;;12.50;55.20;;;;;;5099532;28;20181;-75
2022/03/06 02:00:45;;;;;;;4.07;3.67;;;12.50;55.50;;;;;;5100588;28;20166;-75
2022/03/06 02:03:13;;;;;;;3.70;3.30;;;12.50;55.10;;;;;;5099793;28;20172;-75
2022/03/06 02:05:39;;;;;;;4.27;3.70;;;12.50;55.20;;;;;;5099953;28;20221;-75
2022/03/06 02:08:05;;;;;;;4.20;3.50;;;12.50;55.10;;;;;;5099775;28;20224;-75
2022/03/06 02:10:50;;;;;;;5.97;4.27;;;12.50;55.10;;;;;;5100159;28;20173;-75
2022/03/06 02:13:18;;;;;;;4.80;3.80;;;12.50;55.10;;;;;;5099763;28;20167;-75
2022/03/06 02:25:50;;;;;;;3.70;3.13;;;12.40;55.10;;;;;;5099665;28;20618;-75
2022/03/06 02:28:31;;;;;;;3.90;3.07;;;12.40;55.10;;;;;;5099519;28;20688;-75
2022/03/06 02:30:57;;;;;;;4.07;3.40;;;12.40;55.10;;;;;;5107980;27;20453;-75
2022/03/06 02:33:23;;;;;;;3.70;3.20;;;12.40;55.10;;;;;;5100176;28;20179;-75
2022/03/06 02:35:49;;;;;;;4.10;3.67;;;12.40;55.10;;;;;;5100118;28;20153;-75
2022/03/06 02:38:20;;;;;;;4.20;3.47;;;12.40;55.10;;;;;;5099418;28;20179;-74
2022/03/06 02:40:47;;;;;;;4.63;3.83;;;12.40;55.00;;;;;;5098657;28;20180;-75
2022/03/06 02:43:15;;;;;;;4.20;3.80;;;12.40;55.10;;;;;;5099474;28;20185;-75
2022/03/06 02:45:41;;;;;;;4.57;3.60;;;12.40;55.10;;;;;;5099656;28;20233;-75
2022/03/06 02:48:10;;;;;;;4.77;3.70;;;12.40;55.10;;;;;;5098971;28;20205;-75
2022/03/06 02:50:38;;;;;;;4.17;3.27;;;12.40;55.10;;;;;;5099120;28;20175;-75
2022/03/06 02:53:06;;;;;;;4.20;3.60;;;12.40;55.20;;;;;;5099267;28;20181;-75
2022/03/06 02:55:32;;;;;;;4.03;3.57;;;12.30;55.10;;;;;;5098911;28;20239;-75
2022/03/06 02:57:58;;;;;;;4.40;3.70;;;12.30;55.10;;;;;;5098722;28;20270;-75
2022/03/06 03:00:25;;;;;;;4.23;3.50;;;12.30;55.00;;;;;;5099267;28;20592;-75
2022/03/06 03:02:51;;;;;;;4.53;3.70;;;12.30;55.00;;;;;;5099000;28;20168;-75
2022/03/06 03:05:18;;;;;;;4.90;3.30;;;12.30;54.90;;;;;;5099047;28;20202;-75
2022/03/06 03:07:48;;;;;;;5.17;3.97;;;12.30;55.00;;;;;;5099104;28;20174;-75
2022/03/06 03:10:19;;;;;;;3.90;3.40;;;12.30;55.00;;;;;;5098883;28;20162;-75
2022/03/06 03:12:45;;;;;;;4.57;3.50;;;12.30;54.90;;;;;;5098949;28;20208;-75
2022/03/06 03:15:12;;;;;;;4.17;3.60;;;12.30;55.00;;;;;;5099412;28;20157;-74
2022/03/06 03:17:38;;;;;;;4.13;3.40;;;12.30;55.30;;;;;;5098759;28;20169;-75
2022/03/06 03:20:06;;;;;;;5.33;3.43;;;12.30;55.00;;;;;;5098814;28;20227;-75
2022/03/06 03:22:33;;;;;;;4.20;3.60;;;12.30;55.00;;;;;;5099056;28;20170;-75
2022/03/06 03:24:58;;;;;;;4.50;3.63;;;12.30;55.00;;;;;;5098393;28;20197;-74
2022/03/06 03:27:24;;;;;;;4.43;3.77;;;12.30;54.90;;;;;;5098722;28;20167;-75
2022/03/06 03:29:50;;;;;;;4.03;3.63;;;12.20;54.90;;;;;;5099019;28;20185;-74
2022/03/06 03:32:16;;;;;;;3.97;3.57;;;12.20;54.90;;;;;;5098768;28;20162;-75
2022/03/06 03:34:41;;;;;;;3.83;3.50;;;12.20;54.90;;;;;;5098244;28;20171;-75
2022/03/06 03:37:07;;;;;;;4.40;3.53;;;12.20;55.00;;;;;;5098143;28;20181;-75
2022/03/06 03:39:33;;;;;;;4.27;3.67;;;12.20;54.90;;;;;;5098133;28;20286;-75
2022/03/06 03:41:58;;;;;;;3.87;3.40;;;12.30;55.00;;;;;;5098732;28;20529;-75
2022/03/06 03:44:24;;;;;;;4.70;3.37;;;12.20;54.80;;;;;;5098629;28;20180;-75
2022/03/06 03:46:50;;;;;;;4.13;3.47;;;12.20;54.80;;;;;;5098270;28;20220;-75
2022/03/06 03:49:38;;;;;;;4.77;3.60;;;12.20;54.80;;;;;;5098421;28;20232;-75
2022/03/06 03:52:04;;;;;;;4.70;3.47;;;12.20;54.90;;;;;;5098246;28;20168;-75
2022/03/06 03:54:30;;;;;;;4.80;3.90;;;12.20;54.80;;;;;;5098738;28;20177;-75
2022/03/06 03:56:55;;;;;;;4.10;3.33;;;12.20;54.80;;;;;;5098185;28;20174;-75
2022/03/06 03:59:31;;;;;;;3.90;3.50;;;12.20;54.80;;;;;;5097962;28;20270;-75
2022/03/06 04:01:56;;;;;;;3.73;3.30;;;12.20;54.80;;;;;;5098048;28;20172;-75
2022/03/06 04:04:22;;;;;;;3.77;3.37;;;12.20;54.70;;;;;;5098141;28;20192;-75
2022/03/06 04:06:48;;;;;;;5.87;3.50;;;12.20;54.70;;;;;;5098753;28;20212;-75
2022/03/06 04:09:20;;;;;;;4.53;3.67;;;12.20;54.70;;;;;;5097743;28;20170;-76
2022/03/06 04:11:46;;;;;;;5.10;3.60;;;12.20;54.70;;;;;;5098268;28;20257;-75
2022/03/06 04:14:11;;;;;;;4.07;3.63;;;12.20;54.70;;;;;;5097253;28;20205;-75
2022/03/06 04:16:37;;;;;;;4.60;3.33;;;12.20;54.70;;;;;;5097451;28;20289;-75
2022/03/06 04:19:04;;;;;;;4.33;3.60;;;12.20;54.70;;;;;;5097675;28;20176;-75
2022/03/06 04:21:30;;;;;;;4.40;3.40;;;12.20;54.70;;;;;;5096691;28;20530;-75
2022/03/06 04:23:55;;;;;;;4.40;3.33;;;12.10;54.50;;;;;;5096792;28;20177;-76
2022/03/06 04:26:21;;;;;;;4.80;3.90;;;12.10;54.50;;;;;;5097193;28;20195;-75
2022/03/06 04:28:49;;;;;;;4.27;3.53;;;12.10;54.50;;;;;;5097137;28;20226;-75
2022/03/06 04:31:15;;;;;;;4.17;3.10;;;12.10;54.50;;;;;;5097576;28;20174;-74
2022/03/06 04:33:41;;;;;;;4.23;3.60;;;12.10;54.50;;;;;;5098310;28;20251;-75
2022/03/06 04:36:06;;;;;;;4.20;3.80;;;12.10;54.50;;;;;;5097466;28;20221;-74
2022/03/06 04:38:34;;;;;;;3.73;3.10;;;12.10;54.50;;;;;;5097227;28;20189;-75
2022/03/06 04:41:00;;;;;;;4.03;3.50;;;12.10;54.50;;;;;;5097476;28;20209;-75
2022/03/06 04:43:25;;;;;;;4.23;3.50;;;12.10;54.50;;;;;;5097371;28;20284;-75
2022/03/06 04:45:51;;;;;;;5.40;3.60;;;12.10;54.40;;;;;;5097310;28;20196;-75
2022/03/06 04:48:17;;;;;;;4.97;3.83;;;12.10;54.40;;;;;;5098138;28;20184;-75
2022/03/06 04:50:43;;;;;;;4.50;3.53;;;12.10;54.30;;;;;;5097523;28;20227;-75
2022/03/06 04:53:08;;;;;;;5.60;4.10;;;12.10;54.20;;;;;;5097798;28;20209;-74
2022/03/06 04:55:34;;;;;;;4.37;3.90;;;12.10;54.10;;;;;;5097012;28;20196;-74
2022/03/06 04:58:07;;;;;;;4.40;4.00;;;12.10;54.10;;;;;;5096976;28;20190;-74
2022/03/06 05:00:33;;;;;;;5.50;4.00;;;12.10;54.00;;;;;;5096783;28;20217;-74
2022/03/06 05:02:59;;;;;;;5.13;4.60;;;12.10;54.00;;;;;;5098866;28;20561;-75
2022/03/06 05:05:24;;;;;;;4.80;4.23;;;12.00;53.90;;;;;;5100984;28;20600;-75
2022/03/06 05:08:00;;;;;;;5.60;4.07;;;12.00;53.90;;;;;;5101358;28;20177;-75
2022/03/06 05:10:26;;;;;;;5.10;4.30;;;12.00;53.90;;;;;;5101312;28;20174;-75
2022/03/06 05:12:51;;;;;;;4.30;3.90;;;12.00;53.90;;;;;;5101454;28;20804;-75
2022/03/06 05:15:17;;;;;;;5.67;4.20;;;12.00;53.80;;;;;;5100966;28;20224;-75
2022/03/06 05:17:43;;;;;;;5.27;4.20;;;12.00;53.70;;;;;;5100814;28;20446;-75
2022/03/06 05:20:11;;;;;;;5.63;4.47;;;11.90;53.80;;;;;;5100993;28;20177;-75
2022/03/06 05:22:37;;;;;;;4.93;4.20;;;11.90;53.80;;;;;;5101056;28;20539;-75
2022/03/06 05:25:04;;;;;;;5.63;4.27;;;12.00;53.70;;;;;;5100658;28;20201;-75
2022/03/06 05:27:31;;;;;;;5.70;4.30;;;11.90;53.80;;;;;;5101233;28;20173;-75
2022/03/06 05:29:56;;;;;;;5.03;4.47;;;11.90;53.80;;;;;;5100677;28;20233;-75
2022/03/06 05:32:22;;;;;;;5.00;4.40;;;11.90;53.70;;;;;;5101004;28;20562;-75
2022/03/06 05:34:48;;;;;;;5.07;4.10;;;11.90;53.60;;;;;;5100357;28;20176;-75
2022/03/06 05:37:15;;;;;;;4.53;4.13;;;11.90;53.60;;;;;;5101602;28;20157;-75
2022/03/06 05:39:41;;;;;;;4.60;3.90;;;11.90;53.60;;;;;;5098319;28;20199;-74
2022/03/06 05:42:07;;;;;;;4.43;3.87;;;11.80;53.70;;;;;;5101529;28;20185;-75
2022/03/06 05:44:33;;;;;;;5.43;4.03;;;11.80;53.60;;;;;;5101020;28;20278;-75
2022/03/06 05:46:59;;;;;;;5.23;4.20;;;11.80;53.60;;;;;;5100713;28;20176;-75
2022/03/06 05:49:25;;;;;;;6.23;3.93;;;11.80;53.70;;;;;;5100769;28;20169;-75
2022/03/06 05:51:51;;;;;;;4.60;3.67;;;11.80;53.70;;;;;;5100061;28;20271;-74
2022/03/06 05:54:16;;;;;;;4.57;3.67;;;11.80;53.70;;;;;;5100711;28;20171;-75
2022/03/06 05:56:44;;;;;;;4.03;3.63;;;11.80;53.70;;;;;;5100334;28;20177;-75
2022/03/06 05:59:10;;;;;;;4.27;3.80;;;11.80;53.70;;;;;;5100756;28;20257;-75
2022/03/06 06:01:38;;;;;;;4.40;3.87;;;11.80;53.70;;;;;;5099535;28;20205;-75
2022/03/06 06:04:04;;;;;;;4.67;3.60;;;11.80;53.60;;;;;;5099766;28;20184;-75
2022/03/06 06:06:35;;;;;;;4.80;3.97;;;11.80;53.60;;;;;;5100112;28;20207;-75
2022/03/06 06:09:01;;;;;;;4.63;3.90;;;11.70;53.60;;;;;;5100542;28;20157;-74
2022/03/06 06:11:27;;;;;;;4.33;3.80;;;11.70;53.70;;;;;;5100237;28;20212;-75
2022/03/06 06:13:52;;;;;;;4.13;3.50;;;11.80;53.70;;;;;;5099124;28;20436;-75
2022/03/06 06:16:20;;;;;;;4.50;3.83;;;11.70;53.70;;;;;;5100348;28;20438;-74
2022/03/06 06:18:46;;;;;;;5.23;4.20;;;11.70;53.60;;;;;;5099752;28;20176;-75
2022/03/06 06:21:13;;;;;;;4.73;3.90;;;11.80;53.70;;;;;;5099761;28;20453;-74
2022/03/06 06:23:39;;;;;;;4.33;3.87;;;11.70;53.60;;;;;;5100500;28;20167;-75
2022/03/06 06:26:06;;;;;;;4.67;3.70;;;11.70;53.60;;;;;;5099595;28;20588;-75
2022/03/06 06:28:31;;;;;;;4.40;3.70;;;11.70;53.60;;;;;;5099558;28;20325;-75
2022/03/06 06:30:57;;;;;;;4.33;3.63;;;11.70;53.60;;;;;;5099542;28;20284;-74
2022/03/06 06:33:22;;;;;;;3.93;3.53;;;11.70;53.60;;;;;;5099915;28;20177;-75
2022/03/06 06:35:48;;;;;;;4.40;3.47;;;11.70;53.60;;;;;;5098647;28;20197;-75
2022/03/06 06:38:14;;;;;;;4.30;3.67;;;11.70;53.60;;;;;;5098925;28;20173;-74
2022/03/06 06:40:40;;;;;;;3.90;3.23;;;11.70;53.60;;;;;;5098874;28;20467;-75
2022/03/06 06:43:05;;;;;;;4.33;3.60;;;11.70;53.60;;;;;;5098774;28;20180;-75
2022/03/06 06:45:37;;;;;;;5.20;3.70;;;11.70;53.60;;;;;;5098815;28;20299;-75
2022/03/06 06:48:04;;;;;;;3.87;3.50;;;11.70;53.50;;;;;;5099954;28;20204;-75
2022/03/06 06:50:29;;;;;;;3.90;3.50;;;11.70;53.50;;;;;;5099161;28;20515;-75
2022/03/06 06:52:55;;;;;;;3.67;3.37;;;11.70;53.40;;;;;;5099478;28;20237;-75
2022/03/06 06:55:27;;;;;;;4.03;3.63;;;11.70;53.40;;;;;;5099221;28;20180;-75
2022/03/06 06:57:55;;;;;;;4.40;3.87;;;11.80;53.90;;;;;;5100048;28;20161;-75
2022/03/06 07:00:21;;;;;;;4.43;3.43;;;11.80;53.40;;;;;;5099350;28;20191;-75
2022/03/06 07:02:47;;;;;;;4.13;3.57;;;11.80;53.20;;;;;;5098463;28;20504;-75
2022/03/06 07:05:14;;;;;;;4.00;3.60;;;11.80;53.10;;;;;;5098516;28;20263;-75
2022/03/06 07:07:40;;;;;;;4.83;3.60;;;11.90;53.00;;;;;;5099064;28;20169;-75
2022/03/06 07:10:07;;;;;;;5.03;3.83;;;11.90;52.90;;;;;;5098096;28;20168;-75
2022/03/06 07:12:47;;;;;;;4.07;3.67;;;12.00;52.80;;;;;;5098820;28;20209;-75
2022/03/06 07:15:15;;;;;;;4.13;3.73;;;12.00;53.00;;;;;;5098425;28;20205;-75
2022/03/06 07:17:41;;;;;;;4.50;3.73;;;12.10;52.50;;;;;;5098516;28;20433;-75
2022/03/06 07:20:08;;;;;;;4.00;3.60;;;12.20;52.40;;;;;;5098524;28;20164;-75
2022/03/06 07:22:34;;;;;;;3.77;3.40;;;12.30;52.20;;;;;;5098384;28;20255;-75
2022/03/06 07:25:00;;;;;;;3.80;3.40;;;12.30;52.00;;;;;;5097839;28;20295;-75
2022/03/06 07:27:26;;;;;;;3.90;3.50;;;12.40;51.90;;;;;;5098634;28;20571;-75
2022/03/06 07:29:51;;;;;;;4.00;3.40;;;12.50;51.80;;;;;;5097962;28;20165;-75
2022/03/06 07:32:17;;;;;;;4.13;3.73;;;12.60;51.60;;;;;;5098124;28;20172;-75
2022/03/06 07:34:44;;;;;;;3.90;3.50;;;12.70;51.50;;;;;;5098058;28;20695;-75
2022/03/06 07:37:10;;;;;;;5.77;3.70;;;12.80;51.30;;;;;;5097527;28;20189;-75
2022/03/06 07:39:35;;;;;;;3.93;3.53;;;12.90;51.10;;;;;;5097798;28;20186;-75
2022/03/06 07:42:01;;;;;;;3.77;3.37;;;13.00;51.00;;;;;;5098071;28;20562;-75
2022/03/06 07:44:27;;;;;;;3.70;3.37;;;13.10;50.90;;;;;;5097777;28;20182;-75
2022/03/06 07:46:53;;;;;;;4.30;3.60;;;13.20;50.70;;;;;;5097598;28;20169;-75
2022/03/06 07:49:18;;;;;;;5.07;3.67;;;13.30;50.50;;;;;;5098026;28;20262;-75
2022/03/06 07:51:44;;;;;;;4.00;3.70;;;13.40;50.60;;;;;;5097589;28;20268;-75
2022/03/06 07:54:14;;;;;;;3.90;3.60;;;13.40;50.40;;;;;;5097867;28;20182;-75
2022/03/06 07:56:41;;;;;;;3.97;3.57;;;13.50;50.30;;;;;;5097947;28;20219;-75
2022/03/06 07:59:07;;;;;;;3.97;3.53;;;13.60;50.30;;;;;;5097860;28;20263;-75
2022/03/06 08:01:32;;;;;;;4.30;3.83;;;13.60;50.00;;;;;;5096715;28;20169;-75
2022/03/06 08:03:58;;;;;;;5.77;3.93;;;13.70;50.50;;;;;;5098206;28;20155;-75
2022/03/06 08:06:24;;;;;;;4.13;3.73;;;13.60;50.00;;;;;;5096622;28;20318;-75
2022/03/06 08:08:50;;;;;;;4.43;3.70;;;13.60;50.20;;;;;;5097006;28;20167;-75
2022/03/06 08:11:15;;;;;;;4.43;4.03;;;13.40;50.60;;;;;;5096445;28;20224;-75
2022/03/06 08:13:43;;;;;;;4.13;3.73;;;13.20;50.70;;;;;;5096129;28;20170;-75
2022/03/06 08:16:09;;;;;;;5.43;4.07;;;13.10;51.10;;;;;;5096329;28;20175;-75
2022/03/06 08:18:35;;;;;;;5.03;3.90;;;13.10;51.30;;;;;;5095779;28;20238;-75
2022/03/06 08:21:01;;;;;;;5.63;4.20;;;13.10;51.40;;;;;;5096398;28;20226;-75
2022/03/06 08:23:27;;;;;;;5.90;4.00;;;13.10;51.40;;;;;;5096146;28;20342;-75
2022/03/06 08:25:53;;;;;;;5.20;4.20;;;13.10;51.40;;;;;;5095875;28;20206;-75
2022/03/06 08:28:19;;;;;;;5.47;4.00;;;13.10;51.70;;;;;;5096530;28;20216;-76
2022/03/06 08:30:45;;;;;;;6.83;4.20;;;13.20;51.60;;;;;;5096532;28;20178;-75
2022/03/06 08:33:11;;;;;;;7.83;4.60;;;13.20;51.90;;;;;;5097040;28;20209;-75
2022/03/06 08:35:38;;;;;;;6.37;4.10;;;13.30;51.50;;;;;;5097136;28;20210;-75
2022/03/06 08:38:04;;;;;;;6.23;4.43;;;13.30;51.30;;;;;;5095781;28;20184;-75
2022/03/06 08:40:31;;;;;;;5.30;4.20;;;13.30;51.50;;;;;;5095743;28;20291;-75
2022/03/06 08:42:57;;;;;;;5.00;4.17;;;13.40;51.50;;;;;;5096128;28;20733;-75
2022/03/06 08:45:23;;;;;;;6.67;4.70;;;13.30;51.50;;;;;;5095569;28;20220;-75
2022/03/06 08:47:59;;;;;;;8.30;5.33;;;13.30;51.60;;;;;;5096528;28;20202;-75
2022/03/06 08:50:24;;;;;;;6.73;4.27;;;13.30;51.90;;;;;;5095912;28;20261;-75
2022/03/06 08:52:50;;;;;;;6.50;4.73;;;13.20;51.90;;;;;;5096588;28;20272;-75
2022/03/06 08:55:16;;;;;;;10.40;5.07;;;13.20;52.10;;;;;;5095553;28;20458;-75
2022/03/06 08:57:47;;;;;;;7.53;4.77;;;13.20;52.30;;;;;;5095851;28;20232;-75
2022/03/06 09:00:13;;;;;;;6.37;4.73;;;13.20;52.30;;;;;;5095291;28;20276;-75
2022/03/06 09:02:39;;;;;;;6.53;4.90;;;13.20;52.40;;;;;;5095707;28;20203;-75
2022/03/06 09:05:05;;;;;;;6.30;4.87;;;13.30;52.20;;;;;;5095301;28;20222;-75
2022/03/06 09:07:32;;;;;;;7.00;4.77;;;13.40;52.10;;;;;;5095422;28;20270;-75
2022/03/06 09:09:58;;;;;;;6.57;4.90;;;13.60;51.70;;;;;;5095045;28;20234;-75
2022/03/06 09:12:26;;;;;;;7.33;4.83;;;13.60;51.50;;;;;;5096021;28;20164;-75
2022/03/06 09:14:52;;;;;;;7.13;4.87;;;13.60;51.60;;;;;;5095311;28;20220;-75
2022/03/06 09:17:24;;;;;;;8.20;4.90;;;13.60;51.60;;;;;;5095667;28;20240;-75
2022/03/06 09:19:49;;;;;;;10.10;4.97;;;13.60;51.70;;;;;;5095984;28;20141;-75
2022/03/06 09:22:16;;;;;;;7.40;4.60;;;13.70;51.70;;;;;;5095950;28;20229;-74
2022/03/06 09:24:41;;;;;;;8.87;5.30;;;13.60;51.60;;;;;;5104951;28;20313;-75
2022/03/06 09:27:07;;;;;;;8.30;5.40;;;13.80;51.50;;;;;;5095884;28;20536;-75
2022/03/06 09:29:33;;;;;;;7.17;4.93;;;14.30;51.00;;;;;;5095598;28;20276;-75
2022/03/06 09:32:00;;;;;;;8.17;5.53;;;14.30;50.20;;;;;;5096865;28;20512;-75
2022/03/06 09:34:26;;;;;;;7.83;5.43;;;14.20;50.30;;;;;;5095715;28;20171;-75
2022/03/06 09:36:52;;;;;;;5.77;5.13;;;14.20;50.20;;;;;;5095253;28;20210;-75
2022/03/06 09:39:18;;;;;;;8.30;5.47;;;14.10;50.20;;;;;;5095202;28;20218;-75
2022/03/06 09:41:47;;;;;;;6.60;5.30;;;14.00;50.20;;;;;;5095307;28;20524;-75
2022/03/06 09:44:13;;;;;;;7.90;5.60;;;13.90;50.40;;;;;;5094712;28;20286;-75
2022/03/06 09:46:40;;;;;;;12.00;5.50;;;13.80;50.60;;;;;;5094794;28;20576;-74
2022/03/06 09:49:07;;;;;;;7.77;5.33;;;13.70;50.70;;;;;;5096553;28;20174;-75
2022/03/06 09:51:41;;;;;;;7.27;5.90;;;13.70;50.70;;;;;;5099199;28;20158;-75
2022/03/06 09:54:08;;;;;;;7.43;5.63;;;13.60;50.90;;;;;;5097765;28;20547;-76
2022/03/06 09:56:34;;;;;;;7.73;5.47;;;13.60;50.90;;;;;;5099033;28;20212;-76
2022/03/06 09:58:59;;;;;;;7.50;5.47;;;13.60;50.90;;;;;;5099063;28;20194;-76
2022/03/06 10:01:28;;;;;;;7.33;5.30;;;13.60;50.80;;;;;;5097500;28;20175;-74
2022/03/06 10:03:53;;;;;;;5.97;5.37;;;13.60;50.80;;;;;;5098361;28;20175;-75
2022/03/06 10:06:19;;;;;;;9.37;5.93;;;13.50;50.80;;;;;;5098477;28;20212;-75
2022/03/06 10:08:45;;;;;;;5.53;4.90;;;13.50;50.80;;;;;;5097799;28;20179;-75
2022/03/06 10:11:12;;;;;;;6.23;5.30;;;13.50;50.80;;;;;;5097907;28;20202;-75
2022/03/06 10:13:45;;;;;;;7.13;4.83;;;13.50;50.80;;;;;;5098159;28;20781;-75
2022/03/06 10:16:21;;;;;;;6.33;5.37;;;13.50;50.80;;;;;;5097870;28;20175;-75
2022/03/06 10:18:51;;;;;;;7.63;5.67;;;13.50;50.70;;;;;;5097791;28;20731;-76
2022/03/06 10:21:32;;;;;;;5.70;5.10;;;13.50;51.10;;;;;;5097815;28;20174;-76
2022/03/06 10:24:08;;;;;;;7.70;5.27;;;13.50;50.70;;;;;;5098127;28;20186;-76
2022/03/06 10:26:36;;;;;;;5.60;5.00;;;13.50;50.70;;;;;;5098273;28;20300;-76
2022/03/06 10:29:11;;;;;;;6.73;5.30;;;13.50;50.70;;;;;;5098710;28;20227;-76
2022/03/06 10:31:52;;;;;;;5.47;4.90;;;13.50;50.70;;;;;;5097983;28;20232;-76
2022/03/06 10:34:18;;;;;;;6.13;4.77;;;13.50;50.70;;;;;;5097429;28;20186;-76
2022/03/06 10:36:46;;;;;;;6.50;4.67;;;13.50;50.70;;;;;;5097769;28;20190;-76
2022/03/06 10:39:22;;;;;;;5.57;5.03;;;13.50;50.70;;;;;;5096952;28;20190;-76
2022/03/06 10:41:54;;;;;;;6.17;5.27;;;13.50;50.60;;;;;;5097079;28;20186;-76
2022/03/06 10:44:22;;;;;;;6.23;4.80;;;13.50;50.70;;;;;;5097500;28;20176;-76
2022/03/06 10:47:00;;;;;;;6.27;4.73;;;13.60;50.70;;;;;;5098640;28;20932;-76
2022/03/06 10:49:27;;;;;;;5.00;4.33;;;13.60;50.80;;;;;;5097910;28;20199;-75
2022/03/06 10:51:54;;;;;;;5.13;4.50;;;13.60;50.80;;;;;;5097485;28;20217;-76
2022/03/06 10:54:20;;;;;;;5.07;4.47;;;13.60;51.00;;;;;;5097575;28;20183;-76
2022/03/06 10:56:50;;;;;;;6.20;4.50;;;13.70;51.20;;;;;;5097627;28;20164;-76
2022/03/06 10:59:24;;;;;;;5.10;4.30;;;13.70;51.10;;;;;;5096408;28;20178;-76
2022/03/06 11:01:51;;;;;;;6.53;4.57;;;13.60;51.00;;;;;;5096314;28;20166;-75
2022/03/06 11:04:20;;;;;;;5.93;4.13;;;13.60;51.00;;;;;;5096599;28;20171;-76
2022/03/06 11:06:49;;;;;;;5.97;4.60;;;13.60;51.10;;;;;;5096725;28;20170;-75
2022/03/06 11:09:19;;;;;;;6.10;4.73;;;13.60;51.20;;;;;;5095905;28;20257;-76
2022/03/06 11:11:47;;;;;;;5.83;4.30;;;13.70;51.40;;;;;;5097266;28;20258;-75
2022/03/06 11:14:14;;;;;;;7.23;4.20;;;13.70;51.60;;;;;;5096862;28;20182;-76
2022/03/06 11:16:41;;;;;;;6.00;4.50;;;13.70;51.70;;;;;;5096284;28;20579;-76
2022/03/06 11:19:09;;;;;;;7.40;4.60;;;13.70;51.80;;;;;;5095632;28;20171;-75
2022/03/06 11:21:39;;;;;;;7.40;5.00;;;13.70;51.80;;;;;;5095387;28;20278;-75
2022/03/06 11:24:11;;;;;;;5.77;4.60;;;13.70;52.10;;;;;;5094839;28;20202;-76
2022/03/06 11:27:02;;;;;;;5.87;4.20;;;13.70;51.60;;;;;;5097268;28;20185;-75
2022/03/06 11:29:49;;;;;;;5.37;4.63;;;13.70;51.40;;;;;;5088301;28;20175;-75
2022/03/06 11:32:28;;;;;;;7.30;4.83;;;13.60;51.30;;;;;;5076359;28;20602;-75
2022/03/06 11:35:12;;;;;;;5.63;4.83;;;13.60;51.30;;;;;;5077120;28;20219;-76
2022/03/06 11:37:58;;;;;;;6.60;4.17;;;13.50;51.10;;;;;;5076901;28;20168;-75
2022/03/06 11:40:45;;;;;;;6.10;4.47;;;13.50;51.10;;;;;;5094861;28;20215;-75
2022/03/06 11:43:32;;;;;;;7.50;4.63;;;13.50;51.30;;;;;;5097061;28;20192;-75
2022/03/06 11:46:17;;;;;;;5.03;4.20;;;13.50;50.90;;;;;;5096197;28;20210;-76
2022/03/06 11:48:43;;;;;;;6.13;3.97;;;13.40;50.90;;;;;;5096356;28;20457;-75
2022/03/06 11:51:15;;;;;;;5.33;4.47;;;13.40;50.90;;;;;;5096033;28;20294;-75
2022/03/06 11:54:04;;;;;;;4.57;4.10;;;13.40;50.80;;;;;;5095989;28;20171;-76
2022/03/06 11:56:37;;;;;;;6.10;4.40;;;13.40;50.70;;;;;;5087945;28;20187;-76
2022/03/06 11:59:19;;;;;;;7.67;4.93;;;13.40;50.50;;;;;;5095195;28;20468;-76
2022/03/06 12:01:50;;;;;;;5.07;4.47;;;13.30;50.40;;;;;;5095844;28;20233;-76
2022/03/06 12:04:21;;;;;;;5.27;4.23;;;13.30;50.30;;;;;;5103855;28;20241;-75
2022/03/06 12:06:57;;;;;;;5.43;4.37;;;13.30;50.30;;;;;;5096722;28;20174;-75
2022/03/06 12:09:26;;;;;;;5.43;4.47;;;13.30;50.30;;;;;;5095691;28;20174;-76
2022/03/06 12:11:57;;;;;;;5.40;4.27;;;13.30;50.30;;;;;;5096149;28;20264;-75
2022/03/06 12:14:46;;;;;;;4.70;4.03;;;13.30;50.00;;;;;;5096046;28;20560;-75
2022/03/06 12:17:12;;;;;;;4.70;3.67;;;13.30;50.10;;;;;;5095932;28;20179;-75
2022/03/06 12:19:44;;;;;;;4.50;4.03;;;13.30;50.10;;;;;;5096306;28;20279;-75
2022/03/06 12:22:12;;;;;;;4.13;3.70;;;13.30;50.10;;;;;;5095928;28;20189;-76
2022/03/06 12:24:39;;;;;;;4.37;3.90;;;13.30;50.00;;;;;;5095340;28;20171;-75
2022/03/06 12:27:24;;;;;;;4.83;4.30;;;13.30;49.90;;;;;;5096547;28;20176;-75
2022/03/06 12:29:52;;;;;;;4.80;3.83;;;13.30;50.00;;;;;;5095709;28;20249;-75
2022/03/06 12:32:31;;;;;;;6.23;4.00;;;13.30;49.90;;;;;;5095019;28;20206;-75
2022/03/06 12:35:04;;;;;;;4.37;3.90;;;13.30;49.90;;;;;;5095141;28;20171;-75
2022/03/06 12:37:38;;;;;;;4.83;4.07;;;13.30;50.00;;;;;;5094676;28;20708;-75
2022/03/06 12:40:17;;;;;;;3.90;3.50;;;13.30;50.00;;;;;;5093950;28;20192;-75
2022/03/06 12:42:45;;;;;;;5.00;3.90;;;13.30;49.90;;;;;;5096404;28;20182;-75
2022/03/06 12:45:14;;;;;;;5.97;4.23;;;13.30;49.90;;;;;;5094540;28;20224;-75
2022/03/06 12:47:41;;;;;;;5.47;4.17;;;13.30;49.80;;;;;;5094331;28;20188;-75
2022/03/06 12:50:09;;;;;;;5.17;4.40;;;13.30;49.80;;;;;;5093960;28;20679;-76
2022/03/06 12:52:35;;;;;;;4.53;4.00;;;13.30;49.80;;;;;;5094337;28;20170;-75
2022/03/06 12:55:16;;;;;;;4.67;3.90;;;13.30;49.70;;;;;;5095276;28;20184;-75
2022/03/06 12:58:02;;;;;;;4.30;3.90;;;13.30;49.60;;;;;;5094155;28;20186;-75
2022/03/06 13:00:32;;;;;;;4.60;4.10;;;13.30;49.80;;;;;;5095427;28;20186;-75